createdAt,value
2023-03-19T00:00:04.000Z,-72
2023-03-19T00:04:58.000Z,-73
2023-03-19T00:09:52.000Z,-74
2023-03-19T00:14:45.000Z,-74
2023-03-19T00:19:39.000Z,-74
2023-03-19T00:24:33.000Z,-73
2023-03-19T00:29:27.000Z,-72
2023-03-19T00:34:21.000Z,-73
2023-03-19T00:39:14.000Z,-72
2023-03-19T00:44:08.000Z,-74
2023-03-19T00:49:03.000Z,-73
2023-03-19T00:53:57.000Z,-73
2023-03-19T00:58:51.000Z,-73
2023-03-19T01:03:45.000Z,-74
2023-03-19T01:08:40.000Z,-74
2023-03-19T01:13:34.000Z,-72
2023-03-19T01:18:28.000Z,-73
2023-03-19T01:23:22.000Z,-73
2023-03-19T01:28:15.000Z,-73
2023-03-19T01:33:10.000Z,-73
2023-03-19T01:38:04.000Z,-73
2023-03-19T01:42:58.000Z,-73
2023-03-19T01:47:51.000Z,-72
2023-03-19T01:52:45.000Z,-73
2023-03-19T01:57:40.000Z,-75
2023-03-19T02:02:34.000Z,-73
2023-03-19T02:07:29.000Z,-73
2023-03-19T02:12:23.000Z,-75
2023-03-19T02:17:16.000Z,-76
2023-03-19T02:22:09.000Z,-74
2023-03-19T02:27:03.000Z,-74
2023-03-19T02:31:57.000Z,-74
2023-03-19T02:36:50.000Z,-76
2023-03-19T02:41:44.000Z,-73
2023-03-19T02:46:38.000Z,-74
2023-03-19T02:51:32.000Z,-72
2023-03-19T02:56:26.000Z,-74
2023-03-19T03:01:21.000Z,-74
2023-03-19T03:06:15.000Z,-74
2023-03-19T03:11:09.000Z,-74
2023-03-19T03:16:03.000Z,-72
2023-03-19T03:20:57.000Z,-73
2023-03-19T03:25:51.000Z,-73
2023-03-19T03:30:44.000Z,-73
2023-03-19T03:35:38.000Z,-73
2023-03-19T03:40:33.000Z,-74
2023-03-19T03:45:27.000Z,-72
2023-03-19T03:50:21.000Z,-72
2023-03-19T03:55:15.000Z,-72
2023-03-19T04:00:08.000Z,-73
2023-03-19T04:05:02.000Z,-74
2023-03-19T04:09:56.000Z,-74
2023-03-19T04:14:50.000Z,-73
2023-03-19T04:19:44.000Z,-73
2023-03-19T04:24:38.000Z,-73
2023-03-19T04:29:32.000Z,-74
2023-03-19T04:34:27.000Z,-74
2023-03-19T04:39:20.000Z,-74
2023-03-19T04:44:14.000Z,-74
2023-03-19T04:49:08.000Z,-73
2023-03-19T04:54:03.000Z,-73
2023-03-19T04:58:57.000Z,-73
2023-03-19T05:03:51.000Z,-73
2023-03-19T05:08:45.000Z,-75
2023-03-19T05:13:39.000Z,-73
2023-03-19T05:18:32.000Z,-73
2023-03-19T05:23:27.000Z,-72
2023-03-19T05:28:20.000Z,-73
2023-03-19T05:33:13.000Z,-73
2023-03-19T05:38:08.000Z,-73
2023-03-19T05:43:01.000Z,-73
2023-03-19T05:47:56.000Z,-73
2023-03-19T05:52:50.000Z,-73
2023-03-19T05:57:44.000Z,-73
2023-03-19T06:02:38.000Z,-73
2023-03-19T06:07:32.000Z,-73
2023-03-19T06:12:26.000Z,-72
2023-03-19T06:17:21.000Z,-75
2023-03-19T06:22:15.000Z,-73
2023-03-19T06:27:09.000Z,-72
2023-03-19T06:32:04.000Z,-73
2023-03-19T06:36:58.000Z,-72
2023-03-19T06:41:53.000Z,-73
2023-03-19T06:46:45.000Z,-74
2023-03-19T06:51:40.000Z,-73
2023-03-19T06:56:35.000Z,-72
2023-03-19T07:01:29.000Z,-73
2023-03-19T07:06:22.000Z,-74
2023-03-19T07:11:15.000Z,-74
2023-03-19T07:16:09.000Z,-73
2023-03-19T07:21:02.000Z,-72
2023-03-19T07:25:55.000Z,-72
2023-03-19T07:30:49.000Z,-73
2023-03-19T07:35:44.000Z,-76
2023-03-19T07:40:38.000Z,-73
2023-03-19T07:45:32.000Z,-74
2023-03-19T07:50:26.000Z,-73
2023-03-19T07:55:20.000Z,-72
2023-03-19T08:00:14.000Z,-73
2023-03-19T08:05:08.000Z,-73
2023-03-19T08:10:02.000Z,-73
2023-03-19T08:14:57.000Z,-74
2023-03-19T08:19:51.000Z,-74
2023-03-19T08:24:46.000Z,-73
2023-03-19T08:29:40.000Z,-72
2023-03-19T08:34:35.000Z,-70
2023-03-19T08:39:29.000Z,-69
2023-03-19T08:44:23.000Z,-69
2023-03-19T08:49:17.000Z,-73
2023-03-19T08:54:12.000Z,-70
2023-03-19T08:59:05.000Z,-70
2023-03-19T09:03:58.000Z,-69
2023-03-19T09:08:53.000Z,-72
2023-03-19T09:13:46.000Z,-72
2023-03-19T09:18:40.000Z,-70
2023-03-19T09:23:34.000Z,-67
2023-03-19T09:28:29.000Z,-69
2023-03-19T09:33:23.000Z,-69
2023-03-19T09:38:16.000Z,-70
2023-03-19T09:43:10.000Z,-71
2023-03-19T09:48:05.000Z,-71
2023-03-19T09:52:59.000Z,-71
2023-03-19T09:57:53.000Z,-70
2023-03-19T10:02:47.000Z,-68
2023-03-19T10:07:41.000Z,-71
2023-03-19T10:12:34.000Z,-72
2023-03-19T10:17:28.000Z,-73
2023-03-19T10:22:21.000Z,-71
2023-03-19T10:27:13.000Z,-69
2023-03-19T10:32:07.000Z,-70
2023-03-19T10:37:01.000Z,-72
2023-03-19T10:41:55.000Z,-70
2023-03-19T10:46:50.000Z,-69
2023-03-19T10:51:44.000Z,-71
2023-03-19T10:56:38.000Z,-72
2023-03-19T11:01:33.000Z,-76
2023-03-19T11:06:27.000Z,-72
2023-03-19T11:11:21.000Z,-74
2023-03-19T11:16:14.000Z,-73
2023-03-19T11:21:08.000Z,-76
2023-03-19T11:26:02.000Z,-73
2023-03-19T11:30:55.000Z,-73
2023-03-19T11:35:49.000Z,-71
2023-03-19T11:40:44.000Z,-72
2023-03-19T11:45:38.000Z,-67
2023-03-19T11:50:32.000Z,-68
2023-03-19T11:55:26.000Z,-70
2023-03-19T12:00:21.000Z,-71
2023-03-19T12:05:15.000Z,-75
2023-03-19T12:10:09.000Z,-72
2023-03-19T12:15:04.000Z,-71
2023-03-19T12:19:58.000Z,-70
2023-03-19T12:24:53.000Z,-71
2023-03-19T12:29:47.000Z,-72
2023-03-19T12:34:39.000Z,-72
2023-03-19T12:39:37.000Z,-71
2023-03-19T12:44:27.000Z,-70
2023-03-19T12:49:21.000Z,-71
2023-03-19T12:54:14.000Z,-72
2023-03-19T12:59:05.000Z,-70
2023-03-19T13:03:58.000Z,-68
2023-03-19T13:08:53.000Z,-71
2023-03-19T13:13:47.000Z,-72
2023-03-19T13:18:39.000Z,-71
2023-03-19T13:23:33.000Z,-71
2023-03-19T13:28:28.000Z,-71
2023-03-19T13:33:22.000Z,-72
2023-03-19T13:38:15.000Z,-72
2023-03-19T13:43:09.000Z,-71
2023-03-19T13:48:04.000Z,-70
2023-03-19T13:52:57.000Z,-71
2023-03-19T13:57:49.000Z,-70
2023-03-19T14:02:40.000Z,-68
2023-03-19T14:07:34.000Z,-72
2023-03-19T14:12:28.000Z,-69
2023-03-19T14:17:22.000Z,-68
2023-03-19T14:22:16.000Z,-70
2023-03-19T14:27:11.000Z,-70
2023-03-19T14:32:07.000Z,-71
2023-03-19T14:37:03.000Z,-71
2023-03-19T14:41:58.000Z,-70
2023-03-19T14:46:53.000Z,-69
2023-03-19T14:51:49.000Z,-71
2023-03-19T14:56:44.000Z,-72
2023-03-19T15:01:39.000Z,-69
2023-03-19T15:06:33.000Z,-70
2023-03-19T15:11:27.000Z,-69
2023-03-19T15:16:24.000Z,-71
2023-03-19T15:21:15.000Z,-71
2023-03-19T15:26:10.000Z,-73
2023-03-19T15:31:00.000Z,-69
2023-03-19T15:35:53.000Z,-69
2023-03-19T15:40:47.000Z,-76
2023-03-19T15:45:41.000Z,-73
2023-03-19T15:50:35.000Z,-71
2023-03-19T15:55:30.000Z,-67
2023-03-19T16:00:23.000Z,-67
2023-03-19T16:05:14.000Z,-69
2023-03-19T16:10:08.000Z,-70
2023-03-19T16:15:03.000Z,-69
2023-03-19T16:19:57.000Z,-68
2023-03-19T16:24:51.000Z,-70
2023-03-19T16:29:45.000Z,-72
2023-03-19T16:34:38.000Z,-72
2023-03-19T16:39:32.000Z,-71
2023-03-19T16:44:26.000Z,-70
2023-03-19T16:49:21.000Z,-70
2023-03-19T16:54:15.000Z,-70
2023-03-19T16:59:09.000Z,-70
2023-03-19T17:04:04.000Z,-71
2023-03-19T17:08:57.000Z,-67
2023-03-19T17:13:51.000Z,-69
2023-03-19T17:18:46.000Z,-68
2023-03-19T17:23:40.000Z,-70
2023-03-19T17:28:35.000Z,-69
2023-03-19T17:33:29.000Z,-68
2023-03-19T17:38:24.000Z,-69
2023-03-19T17:43:18.000Z,-71
2023-03-19T17:48:12.000Z,-69
2023-03-19T17:53:07.000Z,-68
2023-03-19T17:58:02.000Z,-68
2023-03-19T18:02:56.000Z,-68
2023-03-19T18:07:49.000Z,-69
2023-03-19T18:12:46.000Z,-68
2023-03-19T18:17:37.000Z,-69
2023-03-19T18:22:31.000Z,-69
2023-03-19T18:27:25.000Z,-69
2023-03-19T18:32:19.000Z,-69
2023-03-19T18:37:14.000Z,-70
2023-03-19T18:42:08.000Z,-70
2023-03-19T18:47:02.000Z,-71
2023-03-19T18:51:56.000Z,-69
2023-03-19T18:56:51.000Z,-70
2023-03-19T19:01:45.000Z,-71
2023-03-19T19:06:40.000Z,-72
2023-03-19T19:11:34.000Z,-70
2023-03-19T19:16:29.000Z,-70
2023-03-19T19:21:23.000Z,-68
2023-03-19T19:26:17.000Z,-70
2023-03-19T19:31:11.000Z,-69
2023-03-19T19:36:06.000Z,-69
2023-03-19T19:40:59.000Z,-68
2023-03-19T19:45:54.000Z,-72
2023-03-19T19:50:48.000Z,-71
2023-03-19T19:55:41.000Z,-71
2023-03-19T20:00:36.000Z,-69
2023-03-19T20:05:30.000Z,-69
2023-03-19T20:10:25.000Z,-68
2023-03-19T20:15:22.000Z,-72
2023-03-19T20:20:12.000Z,-70
2023-03-19T20:25:07.000Z,-73
2023-03-19T20:30:01.000Z,-73
2023-03-19T20:34:54.000Z,-69
2023-03-19T20:39:48.000Z,-72
2023-03-19T20:44:42.000Z,-72
2023-03-19T20:49:37.000Z,-68
2023-03-19T20:54:31.000Z,-70
2023-03-19T20:59:23.000Z,-70
2023-03-19T21:04:18.000Z,-70
2023-03-19T21:09:11.000Z,-73
2023-03-19T21:14:06.000Z,-72
2023-03-19T21:18:59.000Z,-70
2023-03-19T21:23:54.000Z,-71
2023-03-19T21:28:48.000Z,-72
2023-03-19T21:33:42.000Z,-79
2023-03-19T21:38:35.000Z,-71
2023-03-19T21:43:30.000Z,-71
2023-03-19T21:48:24.000Z,-72
2023-03-19T21:53:17.000Z,-71
2023-03-19T21:58:11.000Z,-71
2023-03-19T22:03:06.000Z,-73
2023-03-19T22:07:59.000Z,-71
2023-03-19T22:12:53.000Z,-72
2023-03-19T22:17:47.000Z,-72
2023-03-19T22:22:41.000Z,-72
2023-03-19T22:27:35.000Z,-71
2023-03-19T22:32:30.000Z,-71
2023-03-19T22:37:23.000Z,-72
2023-03-19T22:42:17.000Z,-72
2023-03-19T22:47:11.000Z,-72
2023-03-19T22:52:05.000Z,-72
2023-03-19T22:56:56.000Z,-72
2023-03-19T23:01:51.000Z,-71
2023-03-19T23:06:46.000Z,-72
2023-03-19T23:11:40.000Z,-70
2023-03-19T23:16:35.000Z,-71
2023-03-19T23:21:28.000Z,-72
2023-03-19T23:26:22.000Z,-71
2023-03-19T23:31:16.000Z,-74
2023-03-19T23:36:10.000Z,-71
2023-03-19T23:41:04.000Z,-70
2023-03-19T23:45:58.000Z,-73
2023-03-19T23:50:52.000Z,-70
2023-03-19T23:55:46.000Z,-71
